sensor_id;sensor_type;location;lat;lon;timestamp;P1;durP1;ratioP1;P2;durP2;ratioP2
58553;SDS011;48119;53.218;6.576;2022-12-01T00:00:56;62.60;;;34.58;;
58553;SDS011;48119;53.218;6.576;2022-12-01T00:03:23;59.42;;;33.55;;
58553;SDS011;48119;53.218;6.576;2022-12-01T00:08:25;53.85;;;31.35;;
58553;SDS011;48119;53.218;6.576;2022-12-01T00:10:51;59.97;;;34.00;;
58553;SDS011;48119;53.218;6.576;2022-12-01T00:13:17;61.55;;;34.08;;
58553;SDS011;48119;53.218;6.576;2022-12-01T00:15:43;55.45;;;32.47;;
58553;SDS011;48119;53.218;6.576;2022-12-01T00:18:09;59.85;;;32.53;;
58553;SDS011;48119;53.218;6.576;2022-12-01T00:20:34;58.33;;;31.20;;
58553;SDS011;48119;53.218;6.576;2022-12-01T00:23:00;60.03;;;33.33;;
58553;SDS011;48119;53.218;6.576;2022-12-01T00:25:26;56.58;;;31.00;;
58553;SDS011;48119;53.218;6.576;2022-12-01T00:27:53;60.38;;;32.08;;
58553;SDS011;48119;53.218;6.576;2022-12-01T00:30:19;65.53;;;35.75;;
58553;SDS011;48119;53.218;6.576;2022-12-01T00:32:46;57.58;;;33.20;;
58553;SDS011;48119;53.218;6.576;2022-12-01T00:35:12;64.07;;;33.90;;
58553;SDS011;48119;53.218;6.576;2022-12-01T00:37:39;64.97;;;33.67;;
58553;SDS011;48119;53.218;6.576;2022-12-01T00:40:05;57.67;;;32.85;;
58553;SDS011;48119;53.218;6.576;2022-12-01T00:42:32;61.92;;;34.08;;
58553;SDS011;48119;53.218;6.576;2022-12-01T00:44:58;65.75;;;37.17;;
58553;SDS011;48119;53.218;6.576;2022-12-01T00:47:24;65.28;;;34.50;;
58553;SDS011;48119;53.218;6.576;2022-12-01T00:49:50;61.17;;;34.97;;
58553;SDS011;48119;53.218;6.576;2022-12-01T00:52:16;67.32;;;35.20;;
58553;SDS011;48119;53.218;6.576;2022-12-01T00:54:44;68.68;;;34.92;;
58553;SDS011;48119;53.218;6.576;2022-12-01T00:57:10;67.43;;;35.70;;
58553;SDS011;48119;53.218;6.576;2022-12-01T00:59:36;64.97;;;34.78;;
58553;SDS011;48119;53.218;6.576;2022-12-01T01:02:02;58.80;;;33.58;;
58553;SDS011;48119;53.218;6.576;2022-12-01T01:04:30;61.08;;;33.90;;
58553;SDS011;48119;53.218;6.576;2022-12-01T01:06:56;68.38;;;34.75;;
58553;SDS011;48119;53.218;6.576;2022-12-01T01:09:22;63.15;;;36.35;;
58553;SDS011;48119;53.218;6.576;2022-12-01T01:11:48;68.95;;;34.55;;
58553;SDS011;48119;53.218;6.576;2022-12-01T01:14:14;67.63;;;36.45;;
58553;SDS011;48119;53.218;6.576;2022-12-01T01:16:39;67.05;;;35.33;;
58553;SDS011;48119;53.218;6.576;2022-12-01T01:19:05;65.18;;;34.05;;
58553;SDS011;48119;53.218;6.576;2022-12-01T01:21:31;68.50;;;34.03;;
58553;SDS011;48119;53.218;6.576;2022-12-01T01:23:57;59.75;;;34.35;;
58553;SDS011;48119;53.218;6.576;2022-12-01T01:26:27;62.05;;;35.42;;
58553;SDS011;48119;53.218;6.576;2022-12-01T01:29:02;65.53;;;37.55;;
58553;SDS011;48119;53.218;6.576;2022-12-01T01:31:31;69.05;;;37.67;;
58553;SDS011;48119;53.218;6.576;2022-12-01T01:33:57;66.40;;;37.45;;
58553;SDS011;48119;53.218;6.576;2022-12-01T01:36:23;63.72;;;34.88;;
58553;SDS011;48119;53.218;6.576;2022-12-01T01:38:50;66.25;;;37.45;;
58553;SDS011;48119;53.218;6.576;2022-12-01T01:41:17;70.30;;;38.42;;
58553;SDS011;48119;53.218;6.576;2022-12-01T01:43:48;67.32;;;34.17;;
58553;SDS011;48119;53.218;6.576;2022-12-01T01:46:23;71.03;;;37.63;;
58553;SDS011;48119;53.218;6.576;2022-12-01T01:48:55;65.95;;;33.90;;
58553;SDS011;48119;53.218;6.576;2022-12-01T01:51:40;72.53;;;37.03;;
58553;SDS011;48119;53.218;6.576;2022-12-01T01:56:46;68.43;;;33.70;;
58553;SDS011;48119;53.218;6.576;2022-12-01T01:59:16;64.10;;;34.53;;
58553;SDS011;48119;53.218;6.576;2022-12-01T02:01:47;69.00;;;35.83;;
58553;SDS011;48119;53.218;6.576;2022-12-01T02:04:22;64.43;;;34.75;;
58553;SDS011;48119;53.218;6.576;2022-12-01T02:06:50;61.03;;;33.15;;
58553;SDS011;48119;53.218;6.576;2022-12-01T02:09:16;62.35;;;37.15;;
58553;SDS011;48119;53.218;6.576;2022-12-01T02:14:34;68.85;;;35.22;;
58553;SDS011;48119;53.218;6.576;2022-12-01T02:17:14;70.03;;;35.88;;
58553;SDS011;48119;53.218;6.576;2022-12-01T02:20:02;65.90;;;35.05;;
58553;SDS011;48119;53.218;6.576;2022-12-01T02:30:58;71.75;;;35.92;;
58553;SDS011;48119;53.218;6.576;2022-12-01T02:36:13;68.32;;;37.97;;
58553;SDS011;48119;53.218;6.576;2022-12-01T02:39:05;71.18;;;38.60;;
58553;SDS011;48119;53.218;6.576;2022-12-01T02:41:42;65.57;;;37.35;;
58553;SDS011;48119;53.218;6.576;2022-12-01T02:47:07;73.47;;;36.00;;
58553;SDS011;48119;53.218;6.576;2022-12-01T02:49:42;74.75;;;36.78;;
58553;SDS011;48119;53.218;6.576;2022-12-01T02:52:11;71.00;;;36.50;;
58553;SDS011;48119;53.218;6.576;2022-12-01T02:54:39;73.18;;;36.90;;
58553;SDS011;48119;53.218;6.576;2022-12-01T02:57:08;67.93;;;37.38;;
58553;SDS011;48119;53.218;6.576;2022-12-01T02:59:38;68.45;;;37.05;;
58553;SDS011;48119;53.218;6.576;2022-12-01T03:02:12;70.60;;;38.08;;
58553;SDS011;48119;53.218;6.576;2022-12-01T03:10:22;68.05;;;38.05;;
58553;SDS011;48119;53.218;6.576;2022-12-01T03:13:02;68.07;;;37.33;;
58553;SDS011;48119;53.218;6.576;2022-12-01T03:18:51;66.45;;;36.35;;
58553;SDS011;48119;53.218;6.576;2022-12-01T03:24:35;70.50;;;37.30;;
58553;SDS011;48119;53.218;6.576;2022-12-01T03:26:46;68.28;;;37.33;;
58553;SDS011;48119;53.218;6.576;2022-12-01T03:29:20;78.57;;;39.75;;
58553;SDS011;48119;53.218;6.576;2022-12-01T03:31:55;74.07;;;39.17;;
58553;SDS011;48119;53.218;6.576;2022-12-01T03:34:46;73.13;;;37.88;;
58553;SDS011;48119;53.218;6.576;2022-12-01T03:40:14;70.97;;;36.75;;
58553;SDS011;48119;53.218;6.576;2022-12-01T03:42:45;72.15;;;40.83;;
58553;SDS011;48119;53.218;6.576;2022-12-01T03:45:18;70.05;;;37.72;;
58553;SDS011;48119;53.218;6.576;2022-12-01T03:47:50;68.53;;;36.38;;
58553;SDS011;48119;53.218;6.576;2022-12-01T03:50:17;69.28;;;37.28;;
58553;SDS011;48119;53.218;6.576;2022-12-01T03:52:53;74.93;;;38.63;;
58553;SDS011;48119;53.218;6.576;2022-12-01T03:55:43;70.38;;;36.28;;
58553;SDS011;48119;53.218;6.576;2022-12-01T03:58:26;73.90;;;36.72;;
58553;SDS011;48119;53.218;6.576;2022-12-01T04:00:58;75.70;;;38.30;;
58553;SDS011;48119;53.218;6.576;2022-12-01T04:03:26;74.63;;;38.13;;
58553;SDS011;48119;53.218;6.576;2022-12-01T04:05:52;69.35;;;36.95;;
58553;SDS011;48119;53.218;6.576;2022-12-01T04:08:18;68.57;;;37.15;;
58553;SDS011;48119;53.218;6.576;2022-12-01T04:10:44;70.35;;;37.80;;
58553;SDS011;48119;53.218;6.576;2022-12-01T04:13:10;71.20;;;36.75;;
58553;SDS011;48119;53.218;6.576;2022-12-01T04:15:50;76.07;;;38.58;;
58553;SDS011;48119;53.218;6.576;2022-12-01T04:18:17;67.47;;;36.67;;
58553;SDS011;48119;53.218;6.576;2022-12-01T04:20:44;71.70;;;37.15;;
58553;SDS011;48119;53.218;6.576;2022-12-01T04:23:10;76.90;;;36.47;;
58553;SDS011;48119;53.218;6.576;2022-12-01T04:25:57;71.60;;;37.90;;
58553;SDS011;48119;53.218;6.576;2022-12-01T04:28:24;66.88;;;36.47;;
58553;SDS011;48119;53.218;6.576;2022-12-01T04:30:50;69.70;;;37.08;;
58553;SDS011;48119;53.218;6.576;2022-12-01T04:33:15;75.72;;;38.17;;
58553;SDS011;48119;53.218;6.576;2022-12-01T04:35:41;68.10;;;37.25;;
58553;SDS011;48119;53.218;6.576;2022-12-01T04:38:07;70.00;;;36.38;;
58553;SDS011;48119;53.218;6.576;2022-12-01T04:40:32;65.90;;;37.10;;
58553;SDS011;48119;53.218;6.576;2022-12-01T04:42:58;78.93;;;38.67;;
58553;SDS011;48119;53.218;6.576;2022-12-01T04:45:24;76.05;;;39.85;;
58553;SDS011;48119;53.218;6.576;2022-12-01T04:47:52;74.32;;;38.58;;
58553;SDS011;48119;53.218;6.576;2022-12-01T04:50:18;75.22;;;36.75;;
58553;SDS011;48119;53.218;6.576;2022-12-01T04:52:44;68.18;;;37.58;;
58553;SDS011;48119;53.218;6.576;2022-12-01T04:55:10;70.20;;;36.65;;
58553;SDS011;48119;53.218;6.576;2022-12-01T04:57:36;71.28;;;36.33;;
58553;SDS011;48119;53.218;6.576;2022-12-01T05:00:03;70.97;;;35.78;;
58553;SDS011;48119;53.218;6.576;2022-12-01T05:02:37;67.07;;;37.28;;
58553;SDS011;48119;53.218;6.576;2022-12-01T05:05:10;72.50;;;37.85;;
58553;SDS011;48119;53.218;6.576;2022-12-01T05:07:36;70.82;;;36.00;;
58553;SDS011;48119;53.218;6.576;2022-12-01T05:10:02;73.55;;;37.95;;
58553;SDS011;48119;53.218;6.576;2022-12-01T05:12:29;75.03;;;37.35;;
58553;SDS011;48119;53.218;6.576;2022-12-01T05:14:55;70.15;;;39.15;;
58553;SDS011;48119;53.218;6.576;2022-12-01T05:17:20;69.00;;;35.88;;
58553;SDS011;48119;53.218;6.576;2022-12-01T05:19:46;66.03;;;35.05;;
58553;SDS011;48119;53.218;6.576;2022-12-01T05:22:30;68.50;;;36.53;;
58553;SDS011;48119;53.218;6.576;2022-12-01T05:24:56;60.97;;;33.13;;
58553;SDS011;48119;53.218;6.576;2022-12-01T05:27:22;63.40;;;34.75;;
58553;SDS011;48119;53.218;6.576;2022-12-01T05:29:48;73.28;;;39.10;;
58553;SDS011;48119;53.218;6.576;2022-12-01T05:32:13;68.82;;;36.17;;
58553;SDS011;48119;53.218;6.576;2022-12-01T05:34:39;72.05;;;34.83;;
58553;SDS011;48119;53.218;6.576;2022-12-01T05:37:05;61.03;;;33.83;;
58553;SDS011;48119;53.218;6.576;2022-12-01T05:39:31;65.38;;;35.03;;
58553;SDS011;48119;53.218;6.576;2022-12-01T05:41:56;67.70;;;34.67;;
58553;SDS011;48119;53.218;6.576;2022-12-01T05:44:22;72.63;;;36.88;;
58553;SDS011;48119;53.218;6.576;2022-12-01T05:46:48;61.22;;;34.65;;
58553;SDS011;48119;53.218;6.576;2022-12-01T05:49:14;59.88;;;32.53;;
58553;SDS011;48119;53.218;6.576;2022-12-01T05:51:41;62.92;;;33.72;;
58553;SDS011;48119;53.218;6.576;2022-12-01T05:54:07;61.90;;;35.05;;
58553;SDS011;48119;53.218;6.576;2022-12-01T05:56:33;60.78;;;33.47;;
58553;SDS011;48119;53.218;6.576;2022-12-01T05:58:58;67.20;;;35.15;;
58553;SDS011;48119;53.218;6.576;2022-12-01T06:01:24;67.55;;;35.65;;
58553;SDS011;48119;53.218;6.576;2022-12-01T06:03:51;62.83;;;34.55;;
58553;SDS011;48119;53.218;6.576;2022-12-01T06:06:19;64.65;;;32.85;;
58553;SDS011;48119;53.218;6.576;2022-12-01T06:08:45;65.32;;;35.38;;
58553;SDS011;48119;53.218;6.576;2022-12-01T06:11:11;61.17;;;34.75;;
58553;SDS011;48119;53.218;6.576;2022-12-01T06:13:37;61.05;;;32.35;;
58553;SDS011;48119;53.218;6.576;2022-12-01T06:16:03;66.70;;;34.35;;
58553;SDS011;48119;53.218;6.576;2022-12-01T06:18:31;68.57;;;35.70;;
58553;SDS011;48119;53.218;6.576;2022-12-01T06:20:58;57.47;;;32.70;;
58553;SDS011;48119;53.218;6.576;2022-12-01T06:23:24;57.78;;;31.13;;
58553;SDS011;48119;53.218;6.576;2022-12-01T06:25:50;65.80;;;32.17;;
58553;SDS011;48119;53.218;6.576;2022-12-01T06:28:16;50.40;;;29.27;;
58553;SDS011;48119;53.218;6.576;2022-12-01T06:30:42;53.17;;;29.02;;
58553;SDS011;48119;53.218;6.576;2022-12-01T06:33:07;56.08;;;30.65;;
58553;SDS011;48119;53.218;6.576;2022-12-01T06:35:34;55.65;;;30.63;;
58553;SDS011;48119;53.218;6.576;2022-12-01T06:38:00;56.53;;;28.52;;
58553;SDS011;48119;53.218;6.576;2022-12-01T06:40:26;55.38;;;29.05;;
58553;SDS011;48119;53.218;6.576;2022-12-01T06:42:53;53.28;;;29.17;;
58553;SDS011;48119;53.218;6.576;2022-12-01T06:45:18;56.83;;;30.63;;
58553;SDS011;48119;53.218;6.576;2022-12-01T06:47:44;57.75;;;30.02;;
58553;SDS011;48119;53.218;6.576;2022-12-01T06:50:12;63.20;;;33.05;;
58553;SDS011;48119;53.218;6.576;2022-12-01T06:52:38;50.88;;;29.02;;
58553;SDS011;48119;53.218;6.576;2022-12-01T06:55:04;47.08;;;27.00;;
58553;SDS011;48119;53.218;6.576;2022-12-01T06:57:30;54.67;;;27.40;;
58553;SDS011;48119;53.218;6.576;2022-12-01T06:59:56;51.80;;;28.45;;
58553;SDS011;48119;53.218;6.576;2022-12-01T07:02:22;56.20;;;30.10;;
58553;SDS011;48119;53.218;6.576;2022-12-01T07:04:47;55.90;;;30.13;;
58553;SDS011;48119;53.218;6.576;2022-12-01T07:07:13;52.22;;;28.85;;
58553;SDS011;48119;53.218;6.576;2022-12-01T07:09:39;50.17;;;28.85;;
58553;SDS011;48119;53.218;6.576;2022-12-01T07:12:05;51.60;;;27.23;;
58553;SDS011;48119;53.218;6.576;2022-12-01T07:14:31;52.30;;;27.15;;
58553;SDS011;48119;53.218;6.576;2022-12-01T07:16:57;54.53;;;26.52;;
58553;SDS011;48119;53.218;6.576;2022-12-01T07:19:23;44.42;;;25.58;;
58553;SDS011;48119;53.218;6.576;2022-12-01T07:21:49;53.28;;;27.70;;
58553;SDS011;48119;53.218;6.576;2022-12-01T07:24:15;47.33;;;26.15;;
58553;SDS011;48119;53.218;6.576;2022-12-01T07:26:41;38.80;;;21.58;;
58553;SDS011;48119;53.218;6.576;2022-12-01T07:29:10;41.00;;;21.30;;
58553;SDS011;48119;53.218;6.576;2022-12-01T07:31:36;37.80;;;20.52;;
58553;SDS011;48119;53.218;6.576;2022-12-01T07:34:03;34.55;;;20.80;;
58553;SDS011;48119;53.218;6.576;2022-12-01T07:36:29;36.05;;;19.98;;
58553;SDS011;48119;53.218;6.576;2022-12-01T07:38:55;30.35;;;17.80;;
58553;SDS011;48119;53.218;6.576;2022-12-01T07:41:21;32.40;;;18.02;;
58553;SDS011;48119;53.218;6.576;2022-12-01T07:43:47;31.35;;;17.55;;
58553;SDS011;48119;53.218;6.576;2022-12-01T07:48:40;28.40;;;17.23;;
58553;SDS011;48119;53.218;6.576;2022-12-01T07:51:07;31.15;;;17.02;;
58553;SDS011;48119;53.218;6.576;2022-12-01T07:53:34;25.63;;;15.88;;
58553;SDS011;48119;53.218;6.576;2022-12-01T07:56:00;26.23;;;14.85;;
58553;SDS011;48119;53.218;6.576;2022-12-01T07:58:28;28.67;;;16.30;;
58553;SDS011;48119;53.218;6.576;2022-12-01T08:00:54;24.02;;;14.38;;
58553;SDS011;48119;53.218;6.576;2022-12-01T08:03:20;21.98;;;13.63;;
58553;SDS011;48119;53.218;6.576;2022-12-01T08:05:54;24.73;;;13.80;;
58553;SDS011;48119;53.218;6.576;2022-12-01T08:08:24;22.30;;;13.40;;
58553;SDS011;48119;53.218;6.576;2022-12-01T08:10:51;25.00;;;14.38;;
58553;SDS011;48119;53.218;6.576;2022-12-01T08:13:18;21.75;;;14.13;;
58553;SDS011;48119;53.218;6.576;2022-12-01T08:15:44;21.25;;;13.38;;
58553;SDS011;48119;53.218;6.576;2022-12-01T08:18:10;19.50;;;12.60;;
58553;SDS011;48119;53.218;6.576;2022-12-01T08:20:36;20.63;;;13.48;;
58553;SDS011;48119;53.218;6.576;2022-12-01T08:23:02;21.85;;;12.63;;
58553;SDS011;48119;53.218;6.576;2022-12-01T08:25:28;22.40;;;12.65;;
58553;SDS011;48119;53.218;6.576;2022-12-01T08:27:54;21.25;;;12.90;;
58553;SDS011;48119;53.218;6.576;2022-12-01T08:30:20;19.60;;;12.65;;
58553;SDS011;48119;53.218;6.576;2022-12-01T08:32:47;19.73;;;12.52;;
58553;SDS011;48119;53.218;6.576;2022-12-01T08:35:13;20.30;;;12.68;;
58553;SDS011;48119;53.218;6.576;2022-12-01T08:37:39;21.17;;;12.13;;
58553;SDS011;48119;53.218;6.576;2022-12-01T08:40:05;21.80;;;11.90;;
58553;SDS011;48119;53.218;6.576;2022-12-01T08:42:31;18.55;;;12.05;;
58553;SDS011;48119;53.218;6.576;2022-12-01T08:44:57;22.98;;;12.88;;
58553;SDS011;48119;53.218;6.576;2022-12-01T08:47:23;17.83;;;12.23;;
58553;SDS011;48119;53.218;6.576;2022-12-01T08:49:48;22.25;;;12.93;;
58553;SDS011;48119;53.218;6.576;2022-12-01T08:52:14;18.73;;;11.60;;
58553;SDS011;48119;53.218;6.576;2022-12-01T08:54:40;18.65;;;12.45;;
58553;SDS011;48119;53.218;6.576;2022-12-01T08:57:06;23.77;;;13.27;;
58553;SDS011;48119;53.218;6.576;2022-12-01T08:59:31;22.30;;;13.82;;
58553;SDS011;48119;53.218;6.576;2022-12-01T09:01:57;19.20;;;11.80;;
58553;SDS011;48119;53.218;6.576;2022-12-01T09:04:24;19.08;;;12.73;;
58553;SDS011;48119;53.218;6.576;2022-12-01T09:06:51;22.00;;;13.75;;
58553;SDS011;48119;53.218;6.576;2022-12-01T09:09:19;22.75;;;13.90;;
58553;SDS011;48119;53.218;6.576;2022-12-01T09:11:49;20.20;;;12.02;;
58553;SDS011;48119;53.218;6.576;2022-12-01T09:14:19;19.52;;;12.30;;
58553;SDS011;48119;53.218;6.576;2022-12-01T09:16:46;22.10;;;13.38;;
58553;SDS011;48119;53.218;6.576;2022-12-01T09:19:14;17.58;;;12.38;;
58553;SDS011;48119;53.218;6.576;2022-12-01T09:21:40;24.58;;;14.13;;
58553;SDS011;48119;53.218;6.576;2022-12-01T09:24:10;21.48;;;13.25;;
58553;SDS011;48119;53.218;6.576;2022-12-01T09:26:37;21.88;;;13.55;;
58553;SDS011;48119;53.218;6.576;2022-12-01T09:29:05;17.95;;;12.25;;
58553;SDS011;48119;53.218;6.576;2022-12-01T09:31:36;23.35;;;13.68;;
58553;SDS011;48119;53.218;6.576;2022-12-01T09:34:03;21.88;;;14.48;;
58553;SDS011;48119;53.218;6.576;2022-12-01T09:36:31;26.52;;;15.05;;
58553;SDS011;48119;53.218;6.576;2022-12-01T09:38:58;23.48;;;14.35;;
58553;SDS011;48119;53.218;6.576;2022-12-01T09:50:15;21.75;;;13.25;;
58553;SDS011;48119;53.218;6.576;2022-12-01T09:52:45;23.85;;;15.95;;
58553;SDS011;48119;53.218;6.576;2022-12-01T09:55:21;22.83;;;13.70;;
58553;SDS011;48119;53.218;6.576;2022-12-01T09:57:53;23.45;;;13.55;;
58553;SDS011;48119;53.218;6.576;2022-12-01T10:00:21;24.77;;;16.73;;
58553;SDS011;48119;53.218;6.576;2022-12-01T10:02:53;21.83;;;13.73;;
58553;SDS011;48119;53.218;6.576;2022-12-01T10:05:33;26.25;;;14.25;;
58553;SDS011;48119;53.218;6.576;2022-12-01T10:08:13;22.42;;;13.40;;
58553;SDS011;48119;53.218;6.576;2022-12-01T10:10:43;26.83;;;16.30;;
58553;SDS011;48119;53.218;6.576;2022-12-01T10:13:19;23.83;;;15.60;;
58553;SDS011;48119;53.218;6.576;2022-12-01T10:23:38;26.90;;;16.52;;
58553;SDS011;48119;53.218;6.576;2022-12-01T10:26:14;27.63;;;17.98;;
58553;SDS011;48119;53.218;6.576;2022-12-01T10:28:52;33.88;;;19.05;;
58553;SDS011;48119;53.218;6.576;2022-12-01T10:31:27;30.25;;;17.85;;
58553;SDS011;48119;53.218;6.576;2022-12-01T10:34:05;28.05;;;18.05;;
58553;SDS011;48119;53.218;6.576;2022-12-01T10:36:40;30.88;;;17.95;;
58553;SDS011;48119;53.218;6.576;2022-12-01T10:39:05;32.67;;;19.30;;
58553;SDS011;48119;53.218;6.576;2022-12-01T10:41:37;30.25;;;19.40;;
58553;SDS011;48119;53.218;6.576;2022-12-01T10:44:04;38.67;;;22.02;;
58553;SDS011;48119;53.218;6.576;2022-12-01T10:46:36;45.70;;;23.63;;
58553;SDS011;48119;53.218;6.576;2022-12-01T10:49:20;40.92;;;23.13;;
58553;SDS011;48119;53.218;6.576;2022-12-01T10:52:03;37.25;;;20.30;;
58553;SDS011;48119;53.218;6.576;2022-12-01T10:54:34;41.35;;;24.20;;
58553;SDS011;48119;53.218;6.576;2022-12-01T10:57:04;37.47;;;22.90;;
58553;SDS011;48119;53.218;6.576;2022-12-01T11:00:00;38.30;;;22.48;;
58553;SDS011;48119;53.218;6.576;2022-12-01T11:02:25;40.45;;;22.20;;
58553;SDS011;48119;53.218;6.576;2022-12-01T11:07:26;44.95;;;24.80;;
58553;SDS011;48119;53.218;6.576;2022-12-01T11:10:14;47.97;;;25.45;;
58553;SDS011;48119;53.218;6.576;2022-12-01T11:12:41;44.00;;;23.52;;
58553;SDS011;48119;53.218;6.576;2022-12-01T11:15:16;45.10;;;23.13;;
58553;SDS011;48119;53.218;6.576;2022-12-01T11:17:46;44.42;;;24.50;;
58553;SDS011;48119;53.218;6.576;2022-12-01T11:20:23;43.42;;;25.02;;
58553;SDS011;48119;53.218;6.576;2022-12-01T11:25:55;41.63;;;23.63;;
58553;SDS011;48119;53.218;6.576;2022-12-01T11:28:28;46.90;;;24.80;;
58553;SDS011;48119;53.218;6.576;2022-12-01T11:31:05;45.60;;;24.58;;
58553;SDS011;48119;53.218;6.576;2022-12-01T11:33:43;36.72;;;23.60;;
58553;SDS011;48119;53.218;6.576;2022-12-01T11:36:27;39.35;;;24.38;;
58553;SDS011;48119;53.218;6.576;2022-12-01T11:39:16;45.15;;;25.65;;
58553;SDS011;48119;53.218;6.576;2022-12-01T11:41:56;41.35;;;23.77;;
58553;SDS011;48119;53.218;6.576;2022-12-01T11:44:25;46.78;;;25.20;;
58553;SDS011;48119;53.218;6.576;2022-12-01T11:46:52;54.60;;;26.55;;
58553;SDS011;48119;53.218;6.576;2022-12-01T11:49:19;46.83;;;25.33;;
58553;SDS011;48119;53.218;6.576;2022-12-01T11:51:46;44.40;;;24.98;;
58553;SDS011;48119;53.218;6.576;2022-12-01T11:54:23;41.75;;;23.40;;
58553;SDS011;48119;53.218;6.576;2022-12-01T11:56:50;44.65;;;24.85;;
58553;SDS011;48119;53.218;6.576;2022-12-01T11:59:24;42.78;;;26.02;;
58553;SDS011;48119;53.218;6.576;2022-12-01T12:07:15;46.97;;;25.38;;
58553;SDS011;48119;53.218;6.576;2022-12-01T12:21:01;41.95;;;24.45;;
58553;SDS011;48119;53.218;6.576;2022-12-01T12:26:40;40.13;;;23.85;;
58553;SDS011;48119;53.218;6.576;2022-12-01T12:29:29;40.67;;;24.80;;
58553;SDS011;48119;53.218;6.576;2022-12-01T12:38:22;46.88;;;26.88;;
58553;SDS011;48119;53.218;6.576;2022-12-01T12:46:24;47.67;;;25.27;;
58553;SDS011;48119;53.218;6.576;2022-12-01T12:57:26;47.90;;;24.65;;
58553;SDS011;48119;53.218;6.576;2022-12-01T13:02:49;37.22;;;21.40;;
58553;SDS011;48119;53.218;6.576;2022-12-01T13:10:49;35.47;;;21.75;;
58553;SDS011;48119;53.218;6.576;2022-12-01T13:16:38;31.55;;;20.42;;
58553;SDS011;48119;53.218;6.576;2022-12-01T13:21:48;31.67;;;20.10;;
58553;SDS011;48119;53.218;6.576;2022-12-01T13:24:17;29.88;;;18.63;;
58553;SDS011;48119;53.218;6.576;2022-12-01T13:26:46;38.35;;;20.35;;
58553;SDS011;48119;53.218;6.576;2022-12-01T13:29:16;32.50;;;21.35;;
58553;SDS011;48119;53.218;6.576;2022-12-01T13:31:46;33.45;;;21.88;;
58553;SDS011;48119;53.218;6.576;2022-12-01T13:34:17;42.08;;;22.73;;
58553;SDS011;48119;53.218;6.576;2022-12-01T13:36:50;36.20;;;22.55;;
58553;SDS011;48119;53.218;6.576;2022-12-01T13:39:18;37.33;;;20.63;;
58553;SDS011;48119;53.218;6.576;2022-12-01T13:42:23;37.15;;;21.23;;
58553;SDS011;48119;53.218;6.576;2022-12-01T13:44:54;43.30;;;22.17;;
58553;SDS011;48119;53.218;6.576;2022-12-01T13:47:28;38.10;;;22.73;;
58553;SDS011;48119;53.218;6.576;2022-12-01T13:50:16;38.05;;;23.55;;
58553;SDS011;48119;53.218;6.576;2022-12-01T13:58:21;37.28;;;23.27;;
58553;SDS011;48119;53.218;6.576;2022-12-01T14:00:49;37.03;;;24.23;;
58553;SDS011;48119;53.218;6.576;2022-12-01T14:05:49;49.08;;;25.45;;
58553;SDS011;48119;53.218;6.576;2022-12-01T14:08:34;41.72;;;24.65;;
58553;SDS011;48119;53.218;6.576;2022-12-01T14:11:21;40.03;;;24.00;;
58553;SDS011;48119;53.218;6.576;2022-12-01T14:16:24;40.75;;;26.35;;
58553;SDS011;48119;53.218;6.576;2022-12-01T14:19:11;41.35;;;24.65;;
58553;SDS011;48119;53.218;6.576;2022-12-01T14:22:05;39.88;;;24.45;;
58553;SDS011;48119;53.218;6.576;2022-12-01T14:27:31;42.22;;;24.50;;
58553;SDS011;48119;53.218;6.576;2022-12-01T14:39:19;43.60;;;23.40;;
58553;SDS011;48119;53.218;6.576;2022-12-01T14:41:52;42.45;;;25.73;;
58553;SDS011;48119;53.218;6.576;2022-12-01T14:44:35;41.55;;;25.65;;
58553;SDS011;48119;53.218;6.576;2022-12-01T14:49:40;46.28;;;25.90;;
58553;SDS011;48119;53.218;6.576;2022-12-01T14:54:50;49.90;;;27.13;;
58553;SDS011;48119;53.218;6.576;2022-12-01T14:57:19;46.80;;;26.25;;
58553;SDS011;48119;53.218;6.576;2022-12-01T15:05:27;40.72;;;26.23;;
58553;SDS011;48119;53.218;6.576;2022-12-01T15:07:56;51.00;;;27.17;;
58553;SDS011;48119;53.218;6.576;2022-12-01T15:12:53;46.65;;;27.60;;
58553;SDS011;48119;53.218;6.576;2022-12-01T15:15:20;43.42;;;26.95;;
58553;SDS011;48119;53.218;6.576;2022-12-01T15:17:48;46.80;;;28.02;;
58553;SDS011;48119;53.218;6.576;2022-12-01T15:22:57;50.20;;;31.42;;
58553;SDS011;48119;53.218;6.576;2022-12-01T15:25:29;48.72;;;29.65;;
58553;SDS011;48119;53.218;6.576;2022-12-01T15:28:11;58.17;;;31.30;;
58553;SDS011;48119;53.218;6.576;2022-12-01T15:30:39;56.28;;;29.85;;
58553;SDS011;48119;53.218;6.576;2022-12-01T15:33:07;51.95;;;29.42;;
58553;SDS011;48119;53.218;6.576;2022-12-01T15:35:42;52.67;;;29.95;;
58553;SDS011;48119;53.218;6.576;2022-12-01T15:38:12;47.67;;;28.77;;
58553;SDS011;48119;53.218;6.576;2022-12-01T15:40:42;49.65;;;29.38;;
58553;SDS011;48119;53.218;6.576;2022-12-01T15:43:20;51.28;;;29.25;;
58553;SDS011;48119;53.218;6.576;2022-12-01T15:45:48;57.92;;;30.52;;
58553;SDS011;48119;53.218;6.576;2022-12-01T15:48:26;57.40;;;32.30;;
58553;SDS011;48119;53.218;6.576;2022-12-01T15:53:54;57.03;;;31.63;;
58553;SDS011;48119;53.218;6.576;2022-12-01T15:56:30;54.40;;;32.67;;
58553;SDS011;48119;53.218;6.576;2022-12-01T15:59:08;58.83;;;32.00;;
58553;SDS011;48119;53.218;6.576;2022-12-01T16:01:39;58.83;;;34.17;;
58553;SDS011;48119;53.218;6.576;2022-12-01T16:04:24;54.55;;;33.63;;
58553;SDS011;48119;53.218;6.576;2022-12-01T16:06:59;60.67;;;34.10;;
58553;SDS011;48119;53.218;6.576;2022-12-01T16:14:48;60.63;;;32.80;;
58553;SDS011;48119;53.218;6.576;2022-12-01T16:17:16;56.80;;;33.10;;
58553;SDS011;48119;53.218;6.576;2022-12-01T16:19:42;63.35;;;35.50;;
58553;SDS011;48119;53.218;6.576;2022-12-01T16:24:36;55.83;;;33.97;;
58553;SDS011;48119;53.218;6.576;2022-12-01T16:27:26;60.85;;;35.85;;
58553;SDS011;48119;53.218;6.576;2022-12-01T16:30:01;56.83;;;33.67;;
58553;SDS011;48119;53.218;6.576;2022-12-01T16:35:04;72.03;;;46.03;;
58553;SDS011;48119;53.218;6.576;2022-12-01T16:37:31;60.15;;;35.00;;
58553;SDS011;48119;53.218;6.576;2022-12-01T16:39:57;60.65;;;35.00;;
58553;SDS011;48119;53.218;6.576;2022-12-01T16:42:23;55.80;;;32.33;;
58553;SDS011;48119;53.218;6.576;2022-12-01T16:44:49;58.75;;;33.45;;
58553;SDS011;48119;53.218;6.576;2022-12-01T16:49:43;60.90;;;35.28;;
58553;SDS011;48119;53.218;6.576;2022-12-01T16:52:08;54.92;;;33.05;;
58553;SDS011;48119;53.218;6.576;2022-12-01T16:54:34;54.47;;;31.40;;
58553;SDS011;48119;53.218;6.576;2022-12-01T16:57:00;57.35;;;33.75;;
58553;SDS011;48119;53.218;6.576;2022-12-01T16:59:26;58.20;;;33.65;;
58553;SDS011;48119;53.218;6.576;2022-12-01T17:01:51;50.88;;;30.85;;
58553;SDS011;48119;53.218;6.576;2022-12-01T17:04:17;51.58;;;31.23;;
58553;SDS011;48119;53.218;6.576;2022-12-01T17:06:43;52.60;;;32.97;;
58553;SDS011;48119;53.218;6.576;2022-12-01T17:09:09;50.63;;;30.58;;
58553;SDS011;48119;53.218;6.576;2022-12-01T17:11:34;49.35;;;31.15;;
58553;SDS011;48119;53.218;6.576;2022-12-01T17:14:00;52.42;;;31.27;;
58553;SDS011;48119;53.218;6.576;2022-12-01T17:16:26;51.17;;;29.10;;
58553;SDS011;48119;53.218;6.576;2022-12-01T17:18:52;52.20;;;30.48;;
58553;SDS011;48119;53.218;6.576;2022-12-01T17:21:18;47.80;;;30.42;;
58553;SDS011;48119;53.218;6.576;2022-12-01T17:23:44;53.88;;;31.23;;
58553;SDS011;48119;53.218;6.576;2022-12-01T17:26:14;48.78;;;29.38;;